메인 페이지
METAR-TAF:

METAR-TAF

공항 :

옐리스타, 러시아

위도: 46-22N, 경도: 044-20E, 고도: 150m

현재 날씨관측

예보는 21분 전, 19:00시(UTC)에 발표되었습니다.
북북서10kt
온도 12°C
습도 82%
기압 1018 hPa
시정: 9000m

METAR: URWI 251900Z AUTO 33005MPS 9000 // NCD 12/09 Q1018

시각: 23:21 (19:21 UTC)

예보

예보는 5 시간 21분 전, 14:00시(UTC)에 발표되었습니다.
예보 대상 시간: 25일 15시부터 25일 24시까지 (UTC)
북서6kt, 순간 최대 풍속 19kt
시정 10km 이상
고도 3000ft 상공 구름 보통, 적란운.
일시적
25일 15시부터 25일 24시까지 (UTC)
12kt, 순간 최대 풍속 25kt
시정: 6000m
고도 1600ft 상공 구름 보통
고도 2000ft 상공 구름 많음, 적란운.
약한소나기, 박무

TAF: URWI 251400Z 2515/2524 31003G10MPS 9999 SCT030CB TEMPO 2515/2524 28006G13MPS 6000 -SHRA BR SCT016 BKN020CB

4,000개 이상의 공항 관측 자료 및 예보 (METAR 및 TAF 보고).

지도상에서 검색 가능한 기상관측소가 노란 점과 빨간 점으로 표시되어 있습니다.

기상관측소 명을 보려면 표시 위로 마우스를 이동하세요.

날씨 관측과 예보를 보려면 클릭하세요.

지도 변경 : 확대하려면 엑스 표시가 있는 녹색 버튼, 축소하려면 빼기 표시가 있는 녹색 버튼, 다음 페이지의 지도를 보려면 녹색 화살표를 클릭하세요.


METAR-TAF: